sensor_id;sensor_type;location;lat;lon;timestamp;temperature;humidity
19085;DHT22;9675;51.538;6.728;2024-02-26T00:01:31;7.80;99.90
19085;DHT22;9675;51.538;6.728;2024-02-26T00:04:00;7.80;99.90
19085;DHT22;9675;51.538;6.728;2024-02-26T00:06:28;7.80;99.90
19085;DHT22;9675;51.538;6.728;2024-02-26T00:08:55;7.70;99.90
19085;DHT22;9675;51.538;6.728;2024-02-26T00:11:22;7.80;99.90
19085;DHT22;9675;51.538;6.728;2024-02-26T00:13:49;7.70;99.90
19085;DHT22;9675;51.538;6.728;2024-02-26T00:16:16;7.80;99.90
19085;DHT22;9675;51.538;6.728;2024-02-26T00:18:43;7.70;99.90
19085;DHT22;9675;51.538;6.728;2024-02-26T00:21:12;7.70;99.90
19085;DHT22;9675;51.538;6.728;2024-02-26T00:23:39;7.70;99.90
19085;DHT22;9675;51.538;6.728;2024-02-26T00:26:06;7.70;99.90
19085;DHT22;9675;51.538;6.728;2024-02-26T00:28:33;7.80;99.90
19085;DHT22;9675;51.538;6.728;2024-02-26T00:31:01;7.80;99.90
19085;DHT22;9675;51.538;6.728;2024-02-26T00:33:28;7.80;99.90
19085;DHT22;9675;51.538;6.728;2024-02-26T00:35:55;7.70;99.90
19085;DHT22;9675;51.538;6.728;2024-02-26T00:38:24;7.70;99.90
19085;DHT22;9675;51.538;6.728;2024-02-26T00:40:51;7.70;99.90
19085;DHT22;9675;51.538;6.728;2024-02-26T00:43:18;7.70;99.90
19085;DHT22;9675;51.538;6.728;2024-02-26T00:45:45;7.70;99.90
19085;DHT22;9675;51.538;6.728;2024-02-26T00:48:12;7.70;99.90
19085;DHT22;9675;51.538;6.728;2024-02-26T00:50:39;7.70;99.90
19085;DHT22;9675;51.538;6.728;2024-02-26T00:53:07;7.70;99.90
19085;DHT22;9675;51.538;6.728;2024-02-26T00:55:36;7.70;99.90
19085;DHT22;9675;51.538;6.728;2024-02-26T00:58:03;7.70;99.90
19085;DHT22;9675;51.538;6.728;2024-02-26T01:00:30;7.70;99.90
19085;DHT22;9675;51.538;6.728;2024-02-26T01:02:57;7.70;99.90
19085;DHT22;9675;51.538;6.728;2024-02-26T01:05:25;7.70;99.90
19085;DHT22;9675;51.538;6.728;2024-02-26T01:07:52;7.70;99.90
19085;DHT22;9675;51.538;6.728;2024-02-26T01:10:19;7.70;99.90
19085;DHT22;9675;51.538;6.728;2024-02-26T01:12:47;7.70;99.90
19085;DHT22;9675;51.538;6.728;2024-02-26T01:15:14;7.70;99.90
19085;DHT22;9675;51.538;6.728;2024-02-26T01:17:41;7.70;99.90
19085;DHT22;9675;51.538;6.728;2024-02-26T01:20:09;7.60;99.90
19085;DHT22;9675;51.538;6.728;2024-02-26T01:22:37;7.70;99.90
19085;DHT22;9675;51.538;6.728;2024-02-26T01:25:04;7.70;99.90
19085;DHT22;9675;51.538;6.728;2024-02-26T01:27:32;7.70;99.90
19085;DHT22;9675;51.538;6.728;2024-02-26T01:30:01;7.70;99.90
19085;DHT22;9675;51.538;6.728;2024-02-26T01:32:29;7.70;99.90
19085;DHT22;9675;51.538;6.728;2024-02-26T01:34:56;7.70;99.90
19085;DHT22;9675;51.538;6.728;2024-02-26T01:37:24;7.60;99.90
19085;DHT22;9675;51.538;6.728;2024-02-26T01:39:51;7.60;99.90
19085;DHT22;9675;51.538;6.728;2024-02-26T01:42:18;7.60;99.90
19085;DHT22;9675;51.538;6.728;2024-02-26T01:44:45;7.60;99.90
19085;DHT22;9675;51.538;6.728;2024-02-26T01:47:13;7.60;99.90
19085;DHT22;9675;51.538;6.728;2024-02-26T01:49:41;7.60;99.90
19085;DHT22;9675;51.538;6.728;2024-02-26T01:52:09;7.60;99.90
19085;DHT22;9675;51.538;6.728;2024-02-26T01:54:37;7.60;99.90
19085;DHT22;9675;51.538;6.728;2024-02-26T01:57:05;7.60;99.90
19085;DHT22;9675;51.538;6.728;2024-02-26T01:59:34;7.60;99.90
19085;DHT22;9675;51.538;6.728;2024-02-26T02:02:03;7.60;99.90
19085;DHT22;9675;51.538;6.728;2024-02-26T02:04:36;7.60;99.90
19085;DHT22;9675;51.538;6.728;2024-02-26T02:07:04;7.60;99.90
19085;DHT22;9675;51.538;6.728;2024-02-26T02:09:32;7.60;99.90
19085;DHT22;9675;51.538;6.728;2024-02-26T02:12:00;7.60;99.90
19085;DHT22;9675;51.538;6.728;2024-02-26T02:14:28;7.60;99.90
19085;DHT22;9675;51.538;6.728;2024-02-26T02:16:56;7.70;99.90
19085;DHT22;9675;51.538;6.728;2024-02-26T02:19:23;7.70;99.90
19085;DHT22;9675;51.538;6.728;2024-02-26T02:21:51;7.60;99.90
19085;DHT22;9675;51.538;6.728;2024-02-26T02:24:18;7.70;99.90
19085;DHT22;9675;51.538;6.728;2024-02-26T02:26:45;7.70;99.90
19085;DHT22;9675;51.538;6.728;2024-02-26T02:29:13;7.70;99.90
19085;DHT22;9675;51.538;6.728;2024-02-26T02:31:41;7.70;99.90
19085;DHT22;9675;51.538;6.728;2024-02-26T02:34:09;7.60;99.90
19085;DHT22;9675;51.538;6.728;2024-02-26T02:36:48;7.60;99.90
19085;DHT22;9675;51.538;6.728;2024-02-26T02:39:18;7.60;99.90
19085;DHT22;9675;51.538;6.728;2024-02-26T02:41:46;7.60;99.90
19085;DHT22;9675;51.538;6.728;2024-02-26T02:44:13;7.60;99.90
19085;DHT22;9675;51.538;6.728;2024-02-26T02:46:40;7.60;99.90
19085;DHT22;9675;51.538;6.728;2024-02-26T02:49:08;7.60;99.90
19085;DHT22;9675;51.538;6.728;2024-02-26T02:51:36;7.70;99.90
19085;DHT22;9675;51.538;6.728;2024-02-26T02:54:05;7.70;99.90
19085;DHT22;9675;51.538;6.728;2024-02-26T02:56:32;7.70;99.90
19085;DHT22;9675;51.538;6.728;2024-02-26T02:58:59;7.60;99.90
19085;DHT22;9675;51.538;6.728;2024-02-26T03:01:26;7.60;99.90
19085;DHT22;9675;51.538;6.728;2024-02-26T03:03:53;7.60;99.90
19085;DHT22;9675;51.538;6.728;2024-02-26T03:06:20;7.60;99.90
19085;DHT22;9675;51.538;6.728;2024-02-26T03:08:47;7.60;99.90
19085;DHT22;9675;51.538;6.728;2024-02-26T03:11:16;7.50;99.90
19085;DHT22;9675;51.538;6.728;2024-02-26T03:13:43;7.50;99.90
19085;DHT22;9675;51.538;6.728;2024-02-26T03:16:10;7.50;99.90
19085;DHT22;9675;51.538;6.728;2024-02-26T03:18:38;7.60;99.90
19085;DHT22;9675;51.538;6.728;2024-02-26T03:21:06;7.60;99.90
19085;DHT22;9675;51.538;6.728;2024-02-26T03:23:33;7.60;99.90
19085;DHT22;9675;51.538;6.728;2024-02-26T03:26:02;7.50;99.90
19085;DHT22;9675;51.538;6.728;2024-02-26T03:28:31;7.50;99.90
19085;DHT22;9675;51.538;6.728;2024-02-26T03:30:59;7.50;99.90
19085;DHT22;9675;51.538;6.728;2024-02-26T03:33:26;7.60;99.90
19085;DHT22;9675;51.538;6.728;2024-02-26T03:35:53;7.60;99.90
19085;DHT22;9675;51.538;6.728;2024-02-26T03:38:20;7.50;99.90
19085;DHT22;9675;51.538;6.728;2024-02-26T03:40:47;7.60;99.90
19085;DHT22;9675;51.538;6.728;2024-02-26T03:43:14;7.50;99.90
19085;DHT22;9675;51.538;6.728;2024-02-26T03:45:42;7.60;99.90
19085;DHT22;9675;51.538;6.728;2024-02-26T03:48:09;7.60;99.90
19085;DHT22;9675;51.538;6.728;2024-02-26T03:50:36;7.50;99.90
19085;DHT22;9675;51.538;6.728;2024-02-26T03:53:04;7.50;99.90
19085;DHT22;9675;51.538;6.728;2024-02-26T03:55:31;7.50;99.90
19085;DHT22;9675;51.538;6.728;2024-02-26T03:57:58;7.50;99.90
19085;DHT22;9675;51.538;6.728;2024-02-26T04:00:25;7.50;99.90
19085;DHT22;9675;51.538;6.728;2024-02-26T04:02:55;7.50;99.90
19085;DHT22;9675;51.538;6.728;2024-02-26T04:05:22;7.40;99.90
19085;DHT22;9675;51.538;6.728;2024-02-26T04:07:49;7.40;99.90
19085;DHT22;9675;51.538;6.728;2024-02-26T04:10:17;7.40;99.90
19085;DHT22;9675;51.538;6.728;2024-02-26T04:12:44;7.40;99.90
19085;DHT22;9675;51.538;6.728;2024-02-26T04:15:11;7.40;99.90
19085;DHT22;9675;51.538;6.728;2024-02-26T04:17:38;7.40;99.90
19085;DHT22;9675;51.538;6.728;2024-02-26T04:20:12;7.40;99.90
19085;DHT22;9675;51.538;6.728;2024-02-26T04:22:41;7.40;99.90
19085;DHT22;9675;51.538;6.728;2024-02-26T04:25:08;7.30;99.90
19085;DHT22;9675;51.538;6.728;2024-02-26T04:27:35;7.40;99.90
19085;DHT22;9675;51.538;6.728;2024-02-26T04:30:03;7.40;99.90
19085;DHT22;9675;51.538;6.728;2024-02-26T04:32:31;7.30;99.90
19085;DHT22;9675;51.538;6.728;2024-02-26T04:34:58;7.40;99.90
19085;DHT22;9675;51.538;6.728;2024-02-26T04:37:26;7.40;99.90
19085;DHT22;9675;51.538;6.728;2024-02-26T04:39:57;7.30;99.90
19085;DHT22;9675;51.538;6.728;2024-02-26T04:42:24;7.30;99.90
19085;DHT22;9675;51.538;6.728;2024-02-26T04:44:51;7.30;99.90
19085;DHT22;9675;51.538;6.728;2024-02-26T04:47:18;7.30;99.90
19085;DHT22;9675;51.538;6.728;2024-02-26T04:49:47;7.30;99.90
19085;DHT22;9675;51.538;6.728;2024-02-26T04:52:15;7.30;99.90
19085;DHT22;9675;51.538;6.728;2024-02-26T04:54:44;7.30;99.90
19085;DHT22;9675;51.538;6.728;2024-02-26T04:57:11;7.20;99.90
19085;DHT22;9675;51.538;6.728;2024-02-26T04:59:38;7.30;99.90
19085;DHT22;9675;51.538;6.728;2024-02-26T05:02:06;7.20;99.90
19085;DHT22;9675;51.538;6.728;2024-02-26T05:04:33;7.20;99.90
19085;DHT22;9675;51.538;6.728;2024-02-26T05:07:00;7.20;99.90
19085;DHT22;9675;51.538;6.728;2024-02-26T05:09:27;7.20;99.90
19085;DHT22;9675;51.538;6.728;2024-02-26T05:11:56;7.20;99.90
19085;DHT22;9675;51.538;6.728;2024-02-26T05:14:23;7.20;99.90
19085;DHT22;9675;51.538;6.728;2024-02-26T05:16:50;7.20;99.90
19085;DHT22;9675;51.538;6.728;2024-02-26T05:19:17;7.20;99.90
19085;DHT22;9675;51.538;6.728;2024-02-26T05:21:44;7.20;99.90
19085;DHT22;9675;51.538;6.728;2024-02-26T05:24:12;7.20;99.90
19085;DHT22;9675;51.538;6.728;2024-02-26T05:26:41;7.20;99.90
19085;DHT22;9675;51.538;6.728;2024-02-26T05:29:09;7.20;99.90
19085;DHT22;9675;51.538;6.728;2024-02-26T05:31:37;7.20;99.90
19085;DHT22;9675;51.538;6.728;2024-02-26T05:34:04;7.10;99.90
19085;DHT22;9675;51.538;6.728;2024-02-26T05:36:31;7.20;99.90
19085;DHT22;9675;51.538;6.728;2024-02-26T05:38:59;7.20;99.90
19085;DHT22;9675;51.538;6.728;2024-02-26T05:41:26;7.20;99.90
19085;DHT22;9675;51.538;6.728;2024-02-26T05:43:53;7.20;99.90
19085;DHT22;9675;51.538;6.728;2024-02-26T05:46:22;7.20;99.90
19085;DHT22;9675;51.538;6.728;2024-02-26T05:48:51;7.20;99.90
19085;DHT22;9675;51.538;6.728;2024-02-26T05:51:18;7.10;99.90
19085;DHT22;9675;51.538;6.728;2024-02-26T05:53:45;7.10;99.90
19085;DHT22;9675;51.538;6.728;2024-02-26T05:56:19;7.10;99.90
19085;DHT22;9675;51.538;6.728;2024-02-26T05:58:47;7.10;99.90
19085;DHT22;9675;51.538;6.728;2024-02-26T06:01:15;7.10;99.90
19085;DHT22;9675;51.538;6.728;2024-02-26T06:03:44;7.10;99.90
19085;DHT22;9675;51.538;6.728;2024-02-26T06:06:11;7.10;99.90
19085;DHT22;9675;51.538;6.728;2024-02-26T06:08:40;7.00;99.90
19085;DHT22;9675;51.538;6.728;2024-02-26T06:11:07;7.10;99.90
19085;DHT22;9675;51.538;6.728;2024-02-26T06:13:34;7.10;99.90
19085;DHT22;9675;51.538;6.728;2024-02-26T06:16:02;7.00;99.90
19085;DHT22;9675;51.538;6.728;2024-02-26T06:18:30;7.00;99.90
19085;DHT22;9675;51.538;6.728;2024-02-26T06:20:59;7.00;99.90
19085;DHT22;9675;51.538;6.728;2024-02-26T06:23:26;7.00;99.90
19085;DHT22;9675;51.538;6.728;2024-02-26T06:25:53;7.10;99.90
19085;DHT22;9675;51.538;6.728;2024-02-26T06:28:20;7.00;99.90
19085;DHT22;9675;51.538;6.728;2024-02-26T06:30:47;7.00;99.90
19085;DHT22;9675;51.538;6.728;2024-02-26T06:33:15;7.00;99.90
19085;DHT22;9675;51.538;6.728;2024-02-26T06:35:43;7.00;99.90
19085;DHT22;9675;51.538;6.728;2024-02-26T06:38:12;7.00;99.90
19085;DHT22;9675;51.538;6.728;2024-02-26T06:40:39;7.00;99.90
19085;DHT22;9675;51.538;6.728;2024-02-26T06:43:06;7.00;99.90
19085;DHT22;9675;51.538;6.728;2024-02-26T06:45:33;7.00;99.90
19085;DHT22;9675;51.538;6.728;2024-02-26T06:48:00;7.00;99.90
19085;DHT22;9675;51.538;6.728;2024-02-26T06:50:28;7.00;99.90
19085;DHT22;9675;51.538;6.728;2024-02-26T06:52:55;7.00;99.90
19085;DHT22;9675;51.538;6.728;2024-02-26T06:55:23;7.00;99.90
19085;DHT22;9675;51.538;6.728;2024-02-26T06:57:50;6.90;99.90
19085;DHT22;9675;51.538;6.728;2024-02-26T07:00:17;7.00;99.90
19085;DHT22;9675;51.538;6.728;2024-02-26T07:02:45;7.00;99.90
19085;DHT22;9675;51.538;6.728;2024-02-26T07:05:12;6.90;99.90
19085;DHT22;9675;51.538;6.728;2024-02-26T07:07:39;6.90;99.90
19085;DHT22;9675;51.538;6.728;2024-02-26T07:10:06;6.90;99.90
19085;DHT22;9675;51.538;6.728;2024-02-26T07:12:35;6.90;99.90
19085;DHT22;9675;51.538;6.728;2024-02-26T07:15:03;6.80;99.90
19085;DHT22;9675;51.538;6.728;2024-02-26T07:17:33;6.90;99.90
19085;DHT22;9675;51.538;6.728;2024-02-26T07:20:00;6.90;99.90
19085;DHT22;9675;51.538;6.728;2024-02-26T07:22:29;6.90;99.90
19085;DHT22;9675;51.538;6.728;2024-02-26T07:24:56;6.90;99.90
19085;DHT22;9675;51.538;6.728;2024-02-26T07:27:24;6.90;99.90
19085;DHT22;9675;51.538;6.728;2024-02-26T07:29:52;6.90;99.90
19085;DHT22;9675;51.538;6.728;2024-02-26T07:32:19;6.90;99.90
19085;DHT22;9675;51.538;6.728;2024-02-26T07:34:46;6.90;99.90
19085;DHT22;9675;51.538;6.728;2024-02-26T07:37:13;6.90;99.90
19085;DHT22;9675;51.538;6.728;2024-02-26T07:39:40;6.90;99.90
19085;DHT22;9675;51.538;6.728;2024-02-26T07:42:07;6.90;99.90
19085;DHT22;9675;51.538;6.728;2024-02-26T07:44:34;6.90;99.90
19085;DHT22;9675;51.538;6.728;2024-02-26T07:47:03;6.90;99.90
19085;DHT22;9675;51.538;6.728;2024-02-26T07:49:30;6.90;99.90
19085;DHT22;9675;51.538;6.728;2024-02-26T07:51:57;6.90;99.90
19085;DHT22;9675;51.538;6.728;2024-02-26T07:54:24;6.80;99.90
19085;DHT22;9675;51.538;6.728;2024-02-26T07:56:51;6.90;99.90
19085;DHT22;9675;51.538;6.728;2024-02-26T07:59:18;6.90;99.90
19085;DHT22;9675;51.538;6.728;2024-02-26T08:01:49;6.90;99.90
19085;DHT22;9675;51.538;6.728;2024-02-26T08:04:18;6.90;99.90
19085;DHT22;9675;51.538;6.728;2024-02-26T08:06:45;6.90;99.90
19085;DHT22;9675;51.538;6.728;2024-02-26T08:09:13;6.90;99.90
19085;DHT22;9675;51.538;6.728;2024-02-26T08:11:40;6.80;99.90
19085;DHT22;9675;51.538;6.728;2024-02-26T08:14:07;6.80;99.90
19085;DHT22;9675;51.538;6.728;2024-02-26T08:16:34;6.80;99.90
19085;DHT22;9675;51.538;6.728;2024-02-26T08:19:01;6.80;99.90
19085;DHT22;9675;51.538;6.728;2024-02-26T08:21:29;6.90;99.90
19085;DHT22;9675;51.538;6.728;2024-02-26T08:23:56;6.90;99.90
19085;DHT22;9675;51.538;6.728;2024-02-26T08:26:23;6.90;99.90
19085;DHT22;9675;51.538;6.728;2024-02-26T08:28:50;6.80;99.90
19085;DHT22;9675;51.538;6.728;2024-02-26T08:31:18;6.80;99.90
19085;DHT22;9675;51.538;6.728;2024-02-26T08:33:45;6.80;99.90
19085;DHT22;9675;51.538;6.728;2024-02-26T08:36:12;6.80;99.90
19085;DHT22;9675;51.538;6.728;2024-02-26T08:38:40;6.80;99.90
19085;DHT22;9675;51.538;6.728;2024-02-26T08:41:07;6.90;99.90
19085;DHT22;9675;51.538;6.728;2024-02-26T08:43:34;6.90;99.90
19085;DHT22;9675;51.538;6.728;2024-02-26T08:46:01;6.90;99.90
19085;DHT22;9675;51.538;6.728;2024-02-26T08:48:28;6.80;99.90
19085;DHT22;9675;51.538;6.728;2024-02-26T08:50:55;6.80;99.90
19085;DHT22;9675;51.538;6.728;2024-02-26T08:53:22;6.80;99.90
19085;DHT22;9675;51.538;6.728;2024-02-26T08:55:53;6.80;99.90
19085;DHT22;9675;51.538;6.728;2024-02-26T08:58:20;6.80;99.90
19085;DHT22;9675;51.538;6.728;2024-02-26T09:00:47;6.80;99.90
19085;DHT22;9675;51.538;6.728;2024-02-26T09:03:14;6.90;99.90
19085;DHT22;9675;51.538;6.728;2024-02-26T09:05:41;6.80;99.90
19085;DHT22;9675;51.538;6.728;2024-02-26T09:08:09;6.80;99.90
19085;DHT22;9675;51.538;6.728;2024-02-26T09:10:36;6.80;99.90
19085;DHT22;9675;51.538;6.728;2024-02-26T09:13:04;6.80;99.90
19085;DHT22;9675;51.538;6.728;2024-02-26T09:15:31;6.80;99.90
19085;DHT22;9675;51.538;6.728;2024-02-26T09:17:59;6.80;99.90
19085;DHT22;9675;51.538;6.728;2024-02-26T09:20:26;6.90;99.90
19085;DHT22;9675;51.538;6.728;2024-02-26T09:22:53;6.90;99.90
19085;DHT22;9675;51.538;6.728;2024-02-26T09:25:20;6.90;99.90
19085;DHT22;9675;51.538;6.728;2024-02-26T09:27:47;6.80;99.90
19085;DHT22;9675;51.538;6.728;2024-02-26T09:30:19;6.80;99.90
19085;DHT22;9675;51.538;6.728;2024-02-26T09:32:46;6.90;99.90
19085;DHT22;9675;51.538;6.728;2024-02-26T09:35:14;6.80;99.90
19085;DHT22;9675;51.538;6.728;2024-02-26T09:37:41;6.80;99.90
19085;DHT22;9675;51.538;6.728;2024-02-26T09:40:10;6.90;99.90
19085;DHT22;9675;51.538;6.728;2024-02-26T09:42:43;6.90;99.90
19085;DHT22;9675;51.538;6.728;2024-02-26T09:45:18;6.90;99.90
19085;DHT22;9675;51.538;6.728;2024-02-26T09:47:48;6.90;99.90
19085;DHT22;9675;51.538;6.728;2024-02-26T09:50:17;6.90;99.90
19085;DHT22;9675;51.538;6.728;2024-02-26T09:52:48;6.90;99.90
19085;DHT22;9675;51.538;6.728;2024-02-26T09:55:16;6.90;99.90
19085;DHT22;9675;51.538;6.728;2024-02-26T09:57:46;6.90;99.90
19085;DHT22;9675;51.538;6.728;2024-02-26T10:00:18;6.90;99.90
19085;DHT22;9675;51.538;6.728;2024-02-26T10:02:48;6.90;99.90
19085;DHT22;9675;51.538;6.728;2024-02-26T10:05:17;6.80;99.90
19085;DHT22;9675;51.538;6.728;2024-02-26T10:07:45;6.90;99.90
19085;DHT22;9675;51.538;6.728;2024-02-26T10:10:13;6.90;99.90
19085;DHT22;9675;51.538;6.728;2024-02-26T10:12:40;6.90;99.90
19085;DHT22;9675;51.538;6.728;2024-02-26T10:15:08;6.90;99.90
19085;DHT22;9675;51.538;6.728;2024-02-26T10:17:38;6.90;99.90
19085;DHT22;9675;51.538;6.728;2024-02-26T10:20:13;6.90;99.90
19085;DHT22;9675;51.538;6.728;2024-02-26T10:22:41;6.90;99.90
19085;DHT22;9675;51.538;6.728;2024-02-26T10:25:09;6.90;99.90
19085;DHT22;9675;51.538;6.728;2024-02-26T10:27:36;6.90;99.90
19085;DHT22;9675;51.538;6.728;2024-02-26T10:30:04;6.90;99.90
19085;DHT22;9675;51.538;6.728;2024-02-26T10:32:32;6.90;99.90
19085;DHT22;9675;51.538;6.728;2024-02-26T10:35:01;6.90;99.90
19085;DHT22;9675;51.538;6.728;2024-02-26T10:37:29;6.90;99.90
19085;DHT22;9675;51.538;6.728;2024-02-26T10:39:56;6.90;99.90
19085;DHT22;9675;51.538;6.728;2024-02-26T10:42:23;6.90;99.90
19085;DHT22;9675;51.538;6.728;2024-02-26T10:44:52;6.90;99.90
19085;DHT22;9675;51.538;6.728;2024-02-26T10:47:19;6.90;99.90
19085;DHT22;9675;51.538;6.728;2024-02-26T10:49:47;6.90;99.90
19085;DHT22;9675;51.538;6.728;2024-02-26T10:52:19;6.90;99.90
19085;DHT22;9675;51.538;6.728;2024-02-26T10:54:47;6.90;99.90
19085;DHT22;9675;51.538;6.728;2024-02-26T10:57:18;6.90;99.90
19085;DHT22;9675;51.538;6.728;2024-02-26T10:59:47;6.90;99.90
19085;DHT22;9675;51.538;6.728;2024-02-26T11:02:15;6.90;99.90
19085;DHT22;9675;51.538;6.728;2024-02-26T11:04:43;6.90;99.90
19085;DHT22;9675;51.538;6.728;2024-02-26T11:07:11;7.00;99.90
19085;DHT22;9675;51.538;6.728;2024-02-26T11:09:40;7.00;99.90
19085;DHT22;9675;51.538;6.728;2024-02-26T11:12:12;7.00;99.90
19085;DHT22;9675;51.538;6.728;2024-02-26T11:14:40;7.00;99.90
19085;DHT22;9675;51.538;6.728;2024-02-26T11:17:11;7.00;99.90
19085;DHT22;9675;51.538;6.728;2024-02-26T11:19:41;7.00;99.90
19085;DHT22;9675;51.538;6.728;2024-02-26T11:22:11;7.00;99.90
19085;DHT22;9675;51.538;6.728;2024-02-26T11:24:38;7.00;99.90
19085;DHT22;9675;51.538;6.728;2024-02-26T11:27:10;7.00;99.90
19085;DHT22;9675;51.538;6.728;2024-02-26T11:29:41;7.00;99.90
19085;DHT22;9675;51.538;6.728;2024-02-26T11:32:11;7.00;99.90
19085;DHT22;9675;51.538;6.728;2024-02-26T11:34:39;7.00;99.90
19085;DHT22;9675;51.538;6.728;2024-02-26T11:37:10;7.00;99.90
19085;DHT22;9675;51.538;6.728;2024-02-26T11:39:39;7.10;99.90
19085;DHT22;9675;51.538;6.728;2024-02-26T11:42:09;7.10;99.90
19085;DHT22;9675;51.538;6.728;2024-02-26T11:44:36;7.10;99.90
19085;DHT22;9675;51.538;6.728;2024-02-26T11:47:13;7.10;99.90
19085;DHT22;9675;51.538;6.728;2024-02-26T11:49:40;7.10;99.90
19085;DHT22;9675;51.538;6.728;2024-02-26T11:52:08;7.10;99.90
19085;DHT22;9675;51.538;6.728;2024-02-26T11:54:40;7.10;99.90
19085;DHT22;9675;51.538;6.728;2024-02-26T11:57:25;7.20;99.90
19085;DHT22;9675;51.538;6.728;2024-02-26T11:59:54;7.20;99.90
19085;DHT22;9675;51.538;6.728;2024-02-26T12:02:41;7.20;99.90
19085;DHT22;9675;51.538;6.728;2024-02-26T12:05:13;7.20;99.90
19085;DHT22;9675;51.538;6.728;2024-02-26T12:07:44;7.20;99.90
19085;DHT22;9675;51.538;6.728;2024-02-26T12:10:20;7.20;99.90
19085;DHT22;9675;51.538;6.728;2024-02-26T12:12:55;7.20;99.90
19085;DHT22;9675;51.538;6.728;2024-02-26T12:15:30;7.20;99.90
19085;DHT22;9675;51.538;6.728;2024-02-26T12:18:01;7.20;99.90
19085;DHT22;9675;51.538;6.728;2024-02-26T12:20:30;7.20;99.90
19085;DHT22;9675;51.538;6.728;2024-02-26T12:22:58;7.20;99.90
19085;DHT22;9675;51.538;6.728;2024-02-26T12:25:26;7.30;99.90
19085;DHT22;9675;51.538;6.728;2024-02-26T12:27:56;7.30;99.90
19085;DHT22;9675;51.538;6.728;2024-02-26T12:30:24;7.30;99.90
19085;DHT22;9675;51.538;6.728;2024-02-26T12:32:53;7.30;99.90
19085;DHT22;9675;51.538;6.728;2024-02-26T12:35:22;7.30;99.90
19085;DHT22;9675;51.538;6.728;2024-02-26T12:37:50;7.30;99.90
19085;DHT22;9675;51.538;6.728;2024-02-26T12:40:17;7.30;99.90
19085;DHT22;9675;51.538;6.728;2024-02-26T12:42:45;7.30;99.90
19085;DHT22;9675;51.538;6.728;2024-02-26T12:45:14;7.30;99.90
19085;DHT22;9675;51.538;6.728;2024-02-26T12:47:42;7.40;99.90
19085;DHT22;9675;51.538;6.728;2024-02-26T12:50:11;7.30;99.90
19085;DHT22;9675;51.538;6.728;2024-02-26T12:52:42;7.40;99.90
19085;DHT22;9675;51.538;6.728;2024-02-26T12:55:13;7.40;99.90
19085;DHT22;9675;51.538;6.728;2024-02-26T12:57:42;7.40;99.90
19085;DHT22;9675;51.538;6.728;2024-02-26T13:00:15;7.40;99.90
19085;DHT22;9675;51.538;6.728;2024-02-26T13:02:45;7.40;99.90
19085;DHT22;9675;51.538;6.728;2024-02-26T13:05:14;7.40;99.90
19085;DHT22;9675;51.538;6.728;2024-02-26T13:07:42;7.40;99.90
19085;DHT22;9675;51.538;6.728;2024-02-26T13:10:12;7.40;99.90
19085;DHT22;9675;51.538;6.728;2024-02-26T13:12:43;7.40;99.90
19085;DHT22;9675;51.538;6.728;2024-02-26T13:15:16;7.40;99.90
19085;DHT22;9675;51.538;6.728;2024-02-26T13:17:45;7.50;99.90
19085;DHT22;9675;51.538;6.728;2024-02-26T13:20:13;7.50;99.90
19085;DHT22;9675;51.538;6.728;2024-02-26T13:22:51;7.50;99.90
19085;DHT22;9675;51.538;6.728;2024-02-26T13:25:20;7.50;99.90
19085;DHT22;9675;51.538;6.728;2024-02-26T13:27:47;7.50;99.90
19085;DHT22;9675;51.538;6.728;2024-02-26T13:30:16;7.50;99.90
19085;DHT22;9675;51.538;6.728;2024-02-26T13:32:44;7.50;99.90
19085;DHT22;9675;51.538;6.728;2024-02-26T13:35:13;7.50;99.90
19085;DHT22;9675;51.538;6.728;2024-02-26T13:37:40;7.50;99.90
19085;DHT22;9675;51.538;6.728;2024-02-26T13:40:10;7.60;99.90
19085;DHT22;9675;51.538;6.728;2024-02-26T13:42:38;7.50;99.90
19085;DHT22;9675;51.538;6.728;2024-02-26T13:45:06;7.60;99.90
19085;DHT22;9675;51.538;6.728;2024-02-26T13:47:35;7.60;99.90
19085;DHT22;9675;51.538;6.728;2024-02-26T13:50:03;7.50;99.90
19085;DHT22;9675;51.538;6.728;2024-02-26T13:52:31;7.70;99.90
19085;DHT22;9675;51.538;6.728;2024-02-26T13:54:59;7.70;99.90
19085;DHT22;9675;51.538;6.728;2024-02-26T13:57:28;7.80;99.90
19085;DHT22;9675;51.538;6.728;2024-02-26T13:59:55;7.90;99.90
19085;DHT22;9675;51.538;6.728;2024-02-26T14:02:22;8.00;99.90
19085;DHT22;9675;51.538;6.728;2024-02-26T14:04:51;8.10;99.90
19085;DHT22;9675;51.538;6.728;2024-02-26T14:07:19;8.10;99.90
19085;DHT22;9675;51.538;6.728;2024-02-26T14:09:46;8.10;99.90
19085;DHT22;9675;51.538;6.728;2024-02-26T14:12:13;8.20;99.90
19085;DHT22;9675;51.538;6.728;2024-02-26T14:14:40;8.20;99.90
19085;DHT22;9675;51.538;6.728;2024-02-26T14:17:08;8.20;99.90
19085;DHT22;9675;51.538;6.728;2024-02-26T14:19:35;8.20;99.90
19085;DHT22;9675;51.538;6.728;2024-02-26T14:22:05;8.20;99.90
19085;DHT22;9675;51.538;6.728;2024-02-26T14:24:32;8.30;99.90
19085;DHT22;9675;51.538;6.728;2024-02-26T14:26:59;8.30;99.90
19085;DHT22;9675;51.538;6.728;2024-02-26T14:29:26;8.30;99.90
19085;DHT22;9675;51.538;6.728;2024-02-26T14:31:53;8.30;99.90
19085;DHT22;9675;51.538;6.728;2024-02-26T14:34:21;8.40;99.90
19085;DHT22;9675;51.538;6.728;2024-02-26T14:36:49;8.40;99.90
19085;DHT22;9675;51.538;6.728;2024-02-26T14:39:17;8.40;99.90
19085;DHT22;9675;51.538;6.728;2024-02-26T14:41:44;8.30;99.90
19085;DHT22;9675;51.538;6.728;2024-02-26T14:44:11;8.30;99.90
19085;DHT22;9675;51.538;6.728;2024-02-26T14:46:39;8.40;99.90
19085;DHT22;9675;51.538;6.728;2024-02-26T14:49:06;8.40;99.90
19085;DHT22;9675;51.538;6.728;2024-02-26T14:51:33;8.40;99.90
19085;DHT22;9675;51.538;6.728;2024-02-26T14:54:00;8.40;99.90
19085;DHT22;9675;51.538;6.728;2024-02-26T14:56:29;8.40;99.90
19085;DHT22;9675;51.538;6.728;2024-02-26T14:58:56;8.40;99.90
19085;DHT22;9675;51.538;6.728;2024-02-26T15:01:23;8.40;99.90
19085;DHT22;9675;51.538;6.728;2024-02-26T15:03:51;8.40;99.90
19085;DHT22;9675;51.538;6.728;2024-02-26T15:06:18;8.40;99.90
19085;DHT22;9675;51.538;6.728;2024-02-26T15:08:45;8.40;99.90
19085;DHT22;9675;51.538;6.728;2024-02-26T15:11:12;8.30;99.90
19085;DHT22;9675;51.538;6.728;2024-02-26T15:13:40;8.40;99.90
19085;DHT22;9675;51.538;6.728;2024-02-26T15:16:08;8.40;99.90
19085;DHT22;9675;51.538;6.728;2024-02-26T15:18:36;8.40;99.90
19085;DHT22;9675;51.538;6.728;2024-02-26T15:21:04;8.40;99.90
19085;DHT22;9675;51.538;6.728;2024-02-26T15:23:32;8.40;99.90
19085;DHT22;9675;51.538;6.728;2024-02-26T15:26:00;8.40;99.90
19085;DHT22;9675;51.538;6.728;2024-02-26T15:28:29;8.40;99.90
19085;DHT22;9675;51.538;6.728;2024-02-26T15:30:57;8.40;99.90
19085;DHT22;9675;51.538;6.728;2024-02-26T15:33:24;8.40;99.90
19085;DHT22;9675;51.538;6.728;2024-02-26T15:35:51;8.40;99.90
19085;DHT22;9675;51.538;6.728;2024-02-26T15:38:18;8.40;99.90
19085;DHT22;9675;51.538;6.728;2024-02-26T15:40:45;8.40;99.90
19085;DHT22;9675;51.538;6.728;2024-02-26T15:43:13;8.30;99.90
19085;DHT22;9675;51.538;6.728;2024-02-26T15:45:41;8.40;99.90
19085;DHT22;9675;51.538;6.728;2024-02-26T15:48:09;8.30;99.90
19085;DHT22;9675;51.538;6.728;2024-02-26T15:50:36;8.30;99.90
19085;DHT22;9675;51.538;6.728;2024-02-26T15:53:09;8.30;99.90
19085;DHT22;9675;51.538;6.728;2024-02-26T15:55:36;8.30;99.90
19085;DHT22;9675;51.538;6.728;2024-02-26T15:58:07;8.30;99.90
19085;DHT22;9675;51.538;6.728;2024-02-26T16:00:39;8.30;99.90
19085;DHT22;9675;51.538;6.728;2024-02-26T16:03:09;8.30;99.90
19085;DHT22;9675;51.538;6.728;2024-02-26T16:05:39;8.30;99.90
19085;DHT22;9675;51.538;6.728;2024-02-26T16:08:11;8.30;99.90